Flight Track Log - Related Links

Times and Time Zones

All times are in EDT time to prevent confusion due to time zone crossing. See the N4927N flight status page for this flight to view local times or setup timezone preferences in your user account.

Time Position Orientation Groundspeed Altitude Reporting Facility
EDT Latitude Longitude Course Direction KTS MPH feet Rate Location/Type
Wed 03:20:12 PM 42.9111 -86.1489 160° South 110 127 3,900  Level Chicago Center
Wed 03:21:14 PM 42.8925 -86.1306 144° Southeast 91 105 4,700 677 Climbing Chicago Center
Wed 03:22:16 PM 42.8733 -86.1142 148° Southeast 84 97 5,300 629 Climbing Chicago Center
Wed 03:23:18 PM 42.8511 -86.1044 162° South 84 97 6,000 629 Climbing Chicago Center
Wed 03:24:00 PM 42.8308 -86.0676 157° South  Level FlightAware Approximate
Wed 03:24:20 PM 42.8247 -86.0883 156° South 86 99 6,600  Level Chicago Center
Wed 03:25:00 PM 42.7970 -86.0485 160° South  Level FlightAware Approximate
Wed 03:25:22 PM 42.8019 -86.0764 159° South 88 101 7,000  Level Chicago Center
Wed 03:26:24 PM 42.7772 -86.0500 142° Southeast 105 121 7,000  Level Chicago Center
Wed 03:27:27 PM 42.7456 -86.0258 151° Southeast 125 144 7,000  Level Chicago Center
Wed 03:28:29 PM 42.7142 -86.0056 155° Southeast 126 145 7,000  Level Chicago Center
Wed 03:29:31 PM 42.6842 -85.9822 150° Southeast 125 144 7,000  Level Chicago Center
Wed 03:30:33 PM 42.6450 -85.9614 159° South 126 145 7,000  Level Chicago Center
Wed 03:31:35 PM 42.6131 -85.9419 156° South 126 145 7,000 -48 Level Chicago Center
Wed 03:32:37 PM 42.5819 -85.9225 155° Southeast 125 144 6,900  Descending Chicago Center
Wed 03:33:39 PM 42.5500 -85.9053 158° South 125 144 7,000 48 Climbing Chicago Center
Wed 03:34:41 PM 42.5178 -85.8878 158° South 124 143 7,000  Level Chicago Center
Wed 03:35:43 PM 42.4869 -85.8669 154° Southeast 124 143 7,000  Level Chicago Center
Wed 03:36:45 PM 42.4483 -85.8422 155° Southeast 127 146 7,000  Level Chicago Center
Wed 03:37:48 PM 42.4186 -85.8203 151° Southeast 124 143 7,000  Level Chicago Center
Wed 03:38:50 PM 42.3883 -85.7989 152° Southeast 123 142 7,000  Level Chicago Center
Wed 03:39:52 PM 42.3556 -85.7819 159° South 126 145 7,000  Level Chicago Center
Wed 03:40:54 PM 42.3203 -85.7736 170° South 128 147 7,000 -48 Level Chicago Center
Wed 03:41:56 PM 42.2794 -85.7581 164° South 129 148 6,900  Descending Chicago Center
Wed 03:42:58 PM 42.2500 -85.7436 160° South 128 147 7,000  Climbing Chicago Center
Wed 03:44:00 PM 42.2181 -85.7239 155° Southeast 127 146 6,900  Descending Chicago Center
Wed 03:45:02 PM 42.1806 -85.6978 153° Southeast 127 146 7,000 48 Climbing Chicago Center
Wed 03:46:04 PM 42.1483 -85.6781 156° South 128 147 7,000 -48 Level Chicago Center
Wed 03:47:06 PM 42.1178 -85.6544 150° Southeast 126 145 6,900  Descending Chicago Center
Wed 03:48:09 PM 42.0908 -85.6289 145° Southeast 121 139 7,000 48 Climbing Chicago Center
Wed 03:49:11 PM 42.0600 -85.6064 152° Southeast 124 143 7,000  Level Chicago Center
Wed 03:51:15 PM 41.9806 -85.5842 168° South 130 150 7,000  Level Chicago Center
Wed 03:52:17 PM 41.9494 -85.5592 149° Southeast 130 150 7,000  Level Chicago Center
Wed 03:53:19 PM 41.9144 -85.5411 159° South 134 154 7,000  Level Chicago Center
Wed 03:54:21 PM 41.8803 -85.5283 164° South 130 150 7,000 48 Level Chicago Center
Wed 03:55:23 PM 41.8483 -85.5072 154° Southeast 128 147 7,100  Climbing Chicago Center
Wed 03:56:25 PM 41.8117 -85.4742 146° Southeast 132 152 7,000 -48 Descending Chicago Center
Wed 03:57:27 PM 41.7825 -85.4481 146° Southeast 128 147 7,000  Level Chicago Center
Wed 03:58:29 PM 41.7503 -85.4258 153° Southeast 129 148 7,000  Level Chicago Center
Wed 03:59:32 PM 41.7161 -85.4142 166° South 128 147 7,000 -48 Level Chicago Center
Wed 04:00:34 PM 41.6808 -85.3997 163° South 131 151 6,900  Descending Chicago Center
Wed 04:01:36 PM 41.6458 -85.3811 158° South 132 152 7,000 48 Climbing Chicago Center
Wed 04:02:38 PM 41.6111 -85.3639 160° South 130 150 7,000  Level Chicago Center
Wed 04:03:40 PM 41.5778 -85.3436 156° South 130 150 7,000 48 Level Chicago Center
Wed 04:04:42 PM 41.5394 -85.3169 152° Southeast 129 148 7,100  Climbing Chicago Center
Wed 04:05:44 PM 41.5094 -85.2917 148° Southeast 128 147 7,000 -97 Descending Chicago Center
Wed 04:06:46 PM 41.4747 -85.2764 162° South 131 151 6,900 -48 Descending Chicago Center
Wed 04:07:48 PM 41.4425 -85.2578 157° South 128 147 6,900 48 Level Chicago Center
Wed 04:08:50 PM 41.4097 -85.2403 158° South 127 146 7,000 48 Climbing Chicago Center
Wed 04:09:52 PM 41.3778 -85.2236 159° South 126 145 7,000  Level Chicago Center
Wed 04:10:54 PM 41.3406 -85.1983 153° Southeast 125 144 7,000  Level Chicago Center
Wed 04:11:56 PM 41.3089 -85.1767 153° Southeast 126 145 7,000  Level Chicago Center
Wed 04:12:59 PM 41.2753 -85.1606 160° South 127 146 7,000 -48 Level Chicago Center
Wed 04:14:01 PM 41.2433 -85.1400 154° Southeast 128 147 6,900  Descending Chicago Center
Wed 04:15:03 PM 41.2108 -85.1203 155° Southeast 128 147 7,000 48 Climbing Chicago Center
Wed 04:16:05 PM 41.1778 -85.1028 158° South 128 147 7,000 -48 Level Chicago Center
Wed 04:17:07 PM 41.1439 -85.0686 143° Southeast 127 146 6,900  Descending Chicago Center
Wed 04:18:09 PM 41.1139 -85.0436 148° Southeast 127 146 7,000 48 Climbing Chicago Center
Wed 04:19:11 PM 41.0786 -85.0328 167° South 127 146 7,000  Level Chicago Center
Wed 04:20:13 PM 41.0433 -85.0256 171° South 128 147 7,000  Level Chicago Center
Wed 04:21:15 PM 41.0094 -85.0125 164° South 127 146 7,000  Level Chicago Center
Wed 04:22:17 PM 40.9758 -84.9922 156° South 129 148 7,000  Level Chicago Center
Wed 04:23:19 PM 40.9364 -84.9700 157° South 129 148 7,000  Level Chicago Center
Wed 04:24:22 PM 40.9050 -84.9489 153° Southeast 127 146 7,000  Level Chicago Center
Wed 04:25:23 PM 40.8719 -84.9319 159° South 128 147 7,000  Level Chicago Center
Wed 04:26:25 PM 40.8397 -84.9128 156° South 127 146 7,000  Level Chicago Center
Wed 04:27:28 PM 40.8103 -84.8878 147° Southeast 126 145 7,000  Level Chicago Center
Wed 04:28:30 PM 40.7767 -84.8694 158° South 130 150 7,000  Level Chicago Center
Wed 04:29:32 PM 40.7361 -84.8533 163° South 128 147 7,000  Level Chicago Center
Wed 04:30:34 PM 40.7014 -84.8408 165° South 129 148 7,000  Level Chicago Center
Wed 04:31:36 PM 40.6681 -84.8219 157° South 128 147 7,000  Level Chicago Center
Wed 04:32:38 PM 40.6311 -84.7989 155° Southeast 131 151 7,000 48 Level Chicago Center
Wed 04:33:40 PM 40.5994 -84.7819 158° South 127 146 7,100  Climbing Chicago Center
Wed 04:35:02 PM 40.5556 -84.7633 162° South 131 151 7,000 -42 Descending Indianapolis Center
Wed 04:36:04 PM 40.5181 -84.7403 155° Southeast 129 148 7,000 48 Level Indianapolis Center
Wed 04:37:06 PM 40.4850 -84.7222 157° South 126 145 7,100 48 Climbing Indianapolis Center
Wed 04:38:08 PM 40.4511 -84.7069 161° South 128 147 7,100  Level Indianapolis Center
Wed 04:39:10 PM 40.4158 -84.6881 158° South 129 148 7,100 -49 Level Indianapolis Center
Wed 04:40:11 PM 40.3803 -84.6675 156° South 132 152 7,000  Descending Indianapolis Center
Wed 04:41:12 PM 40.3486 -84.6478 155° Southeast 127 146 7,100  Climbing Indianapolis Center
Wed 04:42:07 PM 40.3217 -84.6264 149° Southeast 126 145 7,000 -49 Descending Indianapolis Center
Wed 04:43:14 PM 40.2889 -84.5983 147° Southeast 130 150 7,000  Level Indianapolis Center
Wed 04:44:09 PM 40.2567 -84.5839 161° South 129 148 7,000  Level Indianapolis Center
Wed 04:45:10 PM 40.2225 -84.5694 162° South 129 148 7,000 49 Level Indianapolis Center
Wed 04:46:11 PM 40.1883 -84.5550 162° South 126 145 7,100  Climbing Indianapolis Center
Wed 04:47:18 PM 40.1528 -84.5319 154° Southeast 129 148 7,000 -50 Descending Indianapolis Center
Wed 04:48:12 PM 40.1206 -84.5203 165° South 130 150 7,000  Level Indianapolis Center
Wed 04:49:13 PM 40.0889 -84.5008 155° Southeast 128 147 7,000  Level Indianapolis Center
Wed 04:50:32 PM 40.0444 -84.4742 155° Southeast 130 150 7,000 -128 Level Indianapolis Center
Wed 04:51:34 PM 40.0106 -84.4514 153° Southeast 133 153 6,700 -346 Descending Indianapolis Center
Wed 04:52:16 PM 39.9864 -84.4356 153° Southeast 138 159 6,400 -466 Descending Indianapolis Center
Wed 04:53:17 PM 39.9492 -84.4289 172° South 137 158 5,900 -724 Descending Indianapolis Center
Wed 04:54:12 PM 39.9144 -84.4389 192° South 140 161 5,000 -931 Descending Indianapolis Center
Wed 04:55:13 PM 39.8753 -84.4508 193° South 144 166 4,100 -659 Descending Indianapolis Center
Wed 04:55:43 PM 39.8603 -84.4536 188° South 141 162 4,000 -98 Descending Indianapolis Center
Wed 04:56:14 PM 39.8392 -84.4553 183° South 127 146 4,000  Level Indianapolis Center
Wed 04:56:45 PM 39.8275 -84.4461 149° Southeast 134 154 4,000 90 Level Indianapolis Center
Wed 04:57:21 PM 39.8061 -84.4300 150° Southeast 117 135 4,100 67 Climbing Indianapolis Center
Wed 04:58:15 PM 39.7806 -84.4117 151° Southeast 115 132 4,100  Level Indianapolis Center
Wed 04:58:49 PM 39.7703 -84.4025 146° Southeast 121 139 4,100 -90 Level Indianapolis Center
Wed 04:59:22 PM 39.7494 -84.3897 155° Southeast 118 136 4,000  Descending Indianapolis Center
Wed 05:00:17 PM 39.7222 -84.3686 149° Southeast 124 143 4,100  Climbing Indianapolis Center
Wed 05:00:53 PM 39.7072 -84.3528 141° Southeast 121 139 4,000 -429 Descending Indianapolis Center
Wed 05:01:55 PM 39.6758 -84.3175 139° Southeast 126 145 3,400 -581 Descending Indianapolis Center
Wed 05:03:00 PM 39.6468 -84.2852 139° Southeast  Level FlightAware Approximate
Wed 05:10:00 PM 39.5890 -84.2249 142° Southeast  Level Estimated
Wed 05:11:00 PM 39.5890 -84.2249 142° Southeast  Level Estimated
Wed 05:12:00 PM 39.5890 -84.2249 142° Southeast  Level Estimated
Wed 05:13:00 PM 39.5890 -84.2249 142° Southeast  Level Estimated

Login

Don't have an account? Register now (free) for customized features, flight alerts, and more!